sensor_id;sensor_type;location;lat;lon;timestamp;temperature;humidity
11122;DHT22;5615;49.304;10.576;2024-03-08T00:00:34;-0.80;99.90
11122;DHT22;5615;49.304;10.576;2024-03-08T00:03:04;-0.80;99.90
11122;DHT22;5615;49.304;10.576;2024-03-08T00:05:31;-0.80;99.90
11122;DHT22;5615;49.304;10.576;2024-03-08T00:07:58;-0.80;99.90
11122;DHT22;5615;49.304;10.576;2024-03-08T00:10:26;-0.80;99.90
11122;DHT22;5615;49.304;10.576;2024-03-08T00:12:54;-0.90;99.90
11122;DHT22;5615;49.304;10.576;2024-03-08T00:15:20;-0.80;99.90
11122;DHT22;5615;49.304;10.576;2024-03-08T00:17:48;-0.90;99.90
11122;DHT22;5615;49.304;10.576;2024-03-08T00:20:16;-0.80;99.90
11122;DHT22;5615;49.304;10.576;2024-03-08T00:22:44;-0.90;99.90
11122;DHT22;5615;49.304;10.576;2024-03-08T00:25:12;-0.90;99.90
11122;DHT22;5615;49.304;10.576;2024-03-08T00:27:41;-1.00;99.90
11122;DHT22;5615;49.304;10.576;2024-03-08T00:30:08;-0.90;99.90
11122;DHT22;5615;49.304;10.576;2024-03-08T00:32:36;-1.00;99.90
11122;DHT22;5615;49.304;10.576;2024-03-08T00:35:04;-1.00;99.90
11122;DHT22;5615;49.304;10.576;2024-03-08T00:37:32;-1.10;99.90
11122;DHT22;5615;49.304;10.576;2024-03-08T00:40:00;-1.00;99.90
11122;DHT22;5615;49.304;10.576;2024-03-08T00:42:28;-1.10;99.90
11122;DHT22;5615;49.304;10.576;2024-03-08T00:44:56;-1.10;99.90
11122;DHT22;5615;49.304;10.576;2024-03-08T00:47:23;-1.10;99.90
11122;DHT22;5615;49.304;10.576;2024-03-08T00:49:50;-1.10;99.90
11122;DHT22;5615;49.304;10.576;2024-03-08T00:52:17;-1.20;99.90
11122;DHT22;5615;49.304;10.576;2024-03-08T00:54:43;-1.10;99.90
11122;DHT22;5615;49.304;10.576;2024-03-08T00:57:10;-1.10;99.90
11122;DHT22;5615;49.304;10.576;2024-03-08T00:59:38;-1.10;99.90
11122;DHT22;5615;49.304;10.576;2024-03-08T01:02:06;-1.10;99.90
11122;DHT22;5615;49.304;10.576;2024-03-08T01:04:35;-1.10;99.90
11122;DHT22;5615;49.304;10.576;2024-03-08T01:07:01;-1.10;99.90
11122;DHT22;5615;49.304;10.576;2024-03-08T01:09:28;-1.10;99.90
11122;DHT22;5615;49.304;10.576;2024-03-08T01:11:55;-1.10;99.90
11122;DHT22;5615;49.304;10.576;2024-03-08T01:14:22;-1.20;99.90
11122;DHT22;5615;49.304;10.576;2024-03-08T01:16:51;-1.30;99.90
11122;DHT22;5615;49.304;10.576;2024-03-08T01:19:19;-1.30;99.90
11122;DHT22;5615;49.304;10.576;2024-03-08T01:21:46;-1.30;99.90
11122;DHT22;5615;49.304;10.576;2024-03-08T01:24:13;-1.30;99.90
11122;DHT22;5615;49.304;10.576;2024-03-08T01:26:40;-1.30;99.90
11122;DHT22;5615;49.304;10.576;2024-03-08T01:29:06;-1.40;99.90
11122;DHT22;5615;49.304;10.576;2024-03-08T01:31:33;-1.50;99.90
11122;DHT22;5615;49.304;10.576;2024-03-08T01:34:02;-1.50;99.90
11122;DHT22;5615;49.304;10.576;2024-03-08T01:36:30;-1.50;99.90
11122;DHT22;5615;49.304;10.576;2024-03-08T01:38:59;-1.60;99.90
11122;DHT22;5615;49.304;10.576;2024-03-08T01:41:26;-1.60;99.90
11122;DHT22;5615;49.304;10.576;2024-03-08T01:43:55;-1.60;99.90
11122;DHT22;5615;49.304;10.576;2024-03-08T01:46:22;-1.60;99.90
11122;DHT22;5615;49.304;10.576;2024-03-08T01:48:49;-1.50;99.90
11122;DHT22;5615;49.304;10.576;2024-03-08T01:51:18;-1.60;99.90
11122;DHT22;5615;49.304;10.576;2024-03-08T01:53:47;-1.60;99.90
11122;DHT22;5615;49.304;10.576;2024-03-08T01:56:15;-1.60;99.90
11122;DHT22;5615;49.304;10.576;2024-03-08T01:58:42;-1.60;99.90
11122;DHT22;5615;49.304;10.576;2024-03-08T02:01:13;-1.60;99.90
11122;DHT22;5615;49.304;10.576;2024-03-08T02:03:41;-1.60;99.90
11122;DHT22;5615;49.304;10.576;2024-03-08T02:06:09;-1.70;99.90
11122;DHT22;5615;49.304;10.576;2024-03-08T02:08:36;-1.70;99.90
11122;DHT22;5615;49.304;10.576;2024-03-08T02:11:05;-1.70;99.90
11122;DHT22;5615;49.304;10.576;2024-03-08T02:13:32;-1.60;99.90
11122;DHT22;5615;49.304;10.576;2024-03-08T02:16:03;-1.60;99.90
11122;DHT22;5615;49.304;10.576;2024-03-08T02:18:31;-1.60;99.90
11122;DHT22;5615;49.304;10.576;2024-03-08T02:21:02;-1.70;99.90
11122;DHT22;5615;49.304;10.576;2024-03-08T02:23:31;-1.70;99.90
11122;DHT22;5615;49.304;10.576;2024-03-08T02:26:00;-1.80;99.90
11122;DHT22;5615;49.304;10.576;2024-03-08T02:28:31;-1.80;99.90
11122;DHT22;5615;49.304;10.576;2024-03-08T02:30:58;-1.90;99.90
11122;DHT22;5615;49.304;10.576;2024-03-08T02:33:26;-1.80;99.90
11122;DHT22;5615;49.304;10.576;2024-03-08T02:35:52;-1.80;99.90
11122;DHT22;5615;49.304;10.576;2024-03-08T02:38:21;-1.80;99.90
11122;DHT22;5615;49.304;10.576;2024-03-08T02:40:50;-1.80;99.90
11122;DHT22;5615;49.304;10.576;2024-03-08T02:43:19;-1.80;99.90
11122;DHT22;5615;49.304;10.576;2024-03-08T02:45:49;-1.90;99.90
11122;DHT22;5615;49.304;10.576;2024-03-08T02:48:18;-1.90;99.90
11122;DHT22;5615;49.304;10.576;2024-03-08T02:50:46;-1.90;99.90
11122;DHT22;5615;49.304;10.576;2024-03-08T02:53:13;-1.80;99.90
11122;DHT22;5615;49.304;10.576;2024-03-08T02:55:42;-1.70;99.90
11122;DHT22;5615;49.304;10.576;2024-03-08T02:58:09;-1.70;99.90
11122;DHT22;5615;49.304;10.576;2024-03-08T03:00:36;-1.70;99.90
11122;DHT22;5615;49.304;10.576;2024-03-08T03:03:04;-1.60;99.90
11122;DHT22;5615;49.304;10.576;2024-03-08T03:05:32;-1.60;99.90
11122;DHT22;5615;49.304;10.576;2024-03-08T03:07:59;-1.60;99.90
11122;DHT22;5615;49.304;10.576;2024-03-08T03:10:25;-1.60;99.90
11122;DHT22;5615;49.304;10.576;2024-03-08T03:12:56;-1.50;99.90
11122;DHT22;5615;49.304;10.576;2024-03-08T03:15:23;-1.60;99.90
11122;DHT22;5615;49.304;10.576;2024-03-08T03:17:50;-1.60;99.90
11122;DHT22;5615;49.304;10.576;2024-03-08T03:20:20;-1.60;99.90
11122;DHT22;5615;49.304;10.576;2024-03-08T03:22:52;-1.60;99.90
11122;DHT22;5615;49.304;10.576;2024-03-08T03:25:19;-1.70;99.90
11122;DHT22;5615;49.304;10.576;2024-03-08T03:27:51;-1.70;99.90
11122;DHT22;5615;49.304;10.576;2024-03-08T03:30:19;-1.70;99.90
11122;DHT22;5615;49.304;10.576;2024-03-08T03:32:47;-1.80;99.90
11122;DHT22;5615;49.304;10.576;2024-03-08T03:35:15;-1.80;99.90
11122;DHT22;5615;49.304;10.576;2024-03-08T03:37:42;-1.80;99.90
11122;DHT22;5615;49.304;10.576;2024-03-08T03:40:11;-1.80;99.90
11122;DHT22;5615;49.304;10.576;2024-03-08T03:42:39;-1.90;99.90
11122;DHT22;5615;49.304;10.576;2024-03-08T03:45:06;-1.90;99.90
11122;DHT22;5615;49.304;10.576;2024-03-08T03:47:36;-2.10;99.90
11122;DHT22;5615;49.304;10.576;2024-03-08T03:50:07;-1.90;99.90
11122;DHT22;5615;49.304;10.576;2024-03-08T03:52:36;-1.80;99.90
11122;DHT22;5615;49.304;10.576;2024-03-08T03:55:04;-1.70;99.90
11122;DHT22;5615;49.304;10.576;2024-03-08T03:57:31;-1.60;99.90
11122;DHT22;5615;49.304;10.576;2024-03-08T03:59:59;-1.60;99.90
11122;DHT22;5615;49.304;10.576;2024-03-08T04:02:28;-1.60;99.90
11122;DHT22;5615;49.304;10.576;2024-03-08T04:04:56;-1.50;99.90
11122;DHT22;5615;49.304;10.576;2024-03-08T04:07:26;-1.50;99.90
11122;DHT22;5615;49.304;10.576;2024-03-08T04:09:52;-1.50;99.90
11122;DHT22;5615;49.304;10.576;2024-03-08T04:12:19;-1.40;99.90
11122;DHT22;5615;49.304;10.576;2024-03-08T04:14:46;-1.40;99.90
11122;DHT22;5615;49.304;10.576;2024-03-08T04:17:12;-1.40;99.90
11122;DHT22;5615;49.304;10.576;2024-03-08T04:19:39;-1.40;99.90
11122;DHT22;5615;49.304;10.576;2024-03-08T04:22:09;-1.30;99.90
11122;DHT22;5615;49.304;10.576;2024-03-08T04:24:37;-1.30;99.90
11122;DHT22;5615;49.304;10.576;2024-03-08T04:27:05;-1.30;99.90
11122;DHT22;5615;49.304;10.576;2024-03-08T04:29:32;-1.30;99.90
11122;DHT22;5615;49.304;10.576;2024-03-08T04:32:00;-1.30;99.90
11122;DHT22;5615;49.304;10.576;2024-03-08T04:34:29;-1.20;99.90
11122;DHT22;5615;49.304;10.576;2024-03-08T04:36:57;-1.20;99.90
11122;DHT22;5615;49.304;10.576;2024-03-08T04:39:27;-1.20;99.90
11122;DHT22;5615;49.304;10.576;2024-03-08T04:41:55;-1.10;99.90
11122;DHT22;5615;49.304;10.576;2024-03-08T04:44:23;-1.20;99.90
11122;DHT22;5615;49.304;10.576;2024-03-08T04:46:50;-1.10;99.90
11122;DHT22;5615;49.304;10.576;2024-03-08T04:49:16;-1.20;99.90
11122;DHT22;5615;49.304;10.576;2024-03-08T04:51:43;-1.20;99.90
11122;DHT22;5615;49.304;10.576;2024-03-08T04:54:11;-1.10;99.90
11122;DHT22;5615;49.304;10.576;2024-03-08T04:56:39;-1.10;99.90
11122;DHT22;5615;49.304;10.576;2024-03-08T04:59:06;-1.10;99.90
11122;DHT22;5615;49.304;10.576;2024-03-08T05:01:34;-1.10;99.90
11122;DHT22;5615;49.304;10.576;2024-03-08T05:04:02;-1.10;99.90
11122;DHT22;5615;49.304;10.576;2024-03-08T05:06:28;-1.20;99.90
11122;DHT22;5615;49.304;10.576;2024-03-08T05:08:55;-1.20;99.90
11122;DHT22;5615;49.304;10.576;2024-03-08T05:11:22;-1.20;99.90
11122;DHT22;5615;49.304;10.576;2024-03-08T05:13:50;-1.20;99.90
11122;DHT22;5615;49.304;10.576;2024-03-08T05:16:17;-1.40;99.90
11122;DHT22;5615;49.304;10.576;2024-03-08T05:18:44;-1.30;99.90
11122;DHT22;5615;49.304;10.576;2024-03-08T05:21:12;-1.30;99.90
11122;DHT22;5615;49.304;10.576;2024-03-08T05:23:39;-1.20;99.90
11122;DHT22;5615;49.304;10.576;2024-03-08T05:26:06;-1.20;99.90
11122;DHT22;5615;49.304;10.576;2024-03-08T05:28:33;-1.20;99.90
11122;DHT22;5615;49.304;10.576;2024-03-08T05:31:01;-1.20;99.90
11122;DHT22;5615;49.304;10.576;2024-03-08T05:33:27;-1.30;99.90
11122;DHT22;5615;49.304;10.576;2024-03-08T05:35:54;-1.20;99.90
11122;DHT22;5615;49.304;10.576;2024-03-08T05:38:22;-1.10;99.90
11122;DHT22;5615;49.304;10.576;2024-03-08T05:40:49;-1.10;99.90
11122;DHT22;5615;49.304;10.576;2024-03-08T05:43:17;-1.10;99.90
11122;DHT22;5615;49.304;10.576;2024-03-08T05:45:47;-1.20;99.90
11122;DHT22;5615;49.304;10.576;2024-03-08T05:48:16;-1.10;99.90
11122;DHT22;5615;49.304;10.576;2024-03-08T05:50:44;-1.10;99.90
11122;DHT22;5615;49.304;10.576;2024-03-08T05:53:11;-1.10;99.90
11122;DHT22;5615;49.304;10.576;2024-03-08T05:55:38;-1.10;99.90
11122;DHT22;5615;49.304;10.576;2024-03-08T05:58:08;-1.10;99.90
11122;DHT22;5615;49.304;10.576;2024-03-08T06:00:37;-1.10;99.90
11122;DHT22;5615;49.304;10.576;2024-03-08T06:03:03;-1.10;99.90
11122;DHT22;5615;49.304;10.576;2024-03-08T06:05:32;-1.10;99.90
11122;DHT22;5615;49.304;10.576;2024-03-08T06:07:59;-1.10;99.90
11122;DHT22;5615;49.304;10.576;2024-03-08T06:10:27;-1.10;99.90
11122;DHT22;5615;49.304;10.576;2024-03-08T06:12:54;-1.10;99.90
11122;DHT22;5615;49.304;10.576;2024-03-08T06:15:21;-1.10;99.90
11122;DHT22;5615;49.304;10.576;2024-03-08T06:17:47;-1.10;99.90
11122;DHT22;5615;49.304;10.576;2024-03-08T06:20:14;-1.10;99.90
11122;DHT22;5615;49.304;10.576;2024-03-08T06:22:42;-1.10;99.90
11122;DHT22;5615;49.304;10.576;2024-03-08T06:25:10;-1.00;99.90
11122;DHT22;5615;49.304;10.576;2024-03-08T06:27:39;-1.00;99.90
11122;DHT22;5615;49.304;10.576;2024-03-08T06:30:07;-0.90;99.90
11122;DHT22;5615;49.304;10.576;2024-03-08T06:32:35;-0.80;99.90
11122;DHT22;5615;49.304;10.576;2024-03-08T06:35:02;-0.70;99.90
11122;DHT22;5615;49.304;10.576;2024-03-08T06:37:31;-0.70;99.90
11122;DHT22;5615;49.304;10.576;2024-03-08T06:39:59;-0.60;99.90
11122;DHT22;5615;49.304;10.576;2024-03-08T06:42:26;-0.50;99.90
11122;DHT22;5615;49.304;10.576;2024-03-08T06:44:59;-0.40;99.90
11122;DHT22;5615;49.304;10.576;2024-03-08T06:47:32;-0.30;99.90
11122;DHT22;5615;49.304;10.576;2024-03-08T06:49:59;-0.10;99.90
11122;DHT22;5615;49.304;10.576;2024-03-08T06:52:26;-0.10;99.90
11122;DHT22;5615;49.304;10.576;2024-03-08T06:54:53;0.00;99.90
11122;DHT22;5615;49.304;10.576;2024-03-08T06:57:21;0.10;99.90
11122;DHT22;5615;49.304;10.576;2024-03-08T06:59:48;0.10;99.90
11122;DHT22;5615;49.304;10.576;2024-03-08T07:02:15;0.20;99.90
11122;DHT22;5615;49.304;10.576;2024-03-08T07:04:42;0.30;99.90
11122;DHT22;5615;49.304;10.576;2024-03-08T07:07:08;0.40;99.90
11122;DHT22;5615;49.304;10.576;2024-03-08T07:09:36;0.50;99.90
11122;DHT22;5615;49.304;10.576;2024-03-08T07:12:03;0.60;99.90
11122;DHT22;5615;49.304;10.576;2024-03-08T07:14:31;0.60;99.90
11122;DHT22;5615;49.304;10.576;2024-03-08T07:16:58;0.70;99.90
11122;DHT22;5615;49.304;10.576;2024-03-08T07:19:25;0.80;99.90
11122;DHT22;5615;49.304;10.576;2024-03-08T07:21:51;0.90;99.90
11122;DHT22;5615;49.304;10.576;2024-03-08T07:24:18;1.00;99.90
11122;DHT22;5615;49.304;10.576;2024-03-08T07:27:03;1.10;99.90
11122;DHT22;5615;49.304;10.576;2024-03-08T07:29:32;1.20;99.90
11122;DHT22;5615;49.304;10.576;2024-03-08T07:31:59;1.30;99.90
11122;DHT22;5615;49.304;10.576;2024-03-08T07:34:38;1.40;99.90
11122;DHT22;5615;49.304;10.576;2024-03-08T07:37:05;1.50;99.90
11122;DHT22;5615;49.304;10.576;2024-03-08T07:39:32;1.60;99.90
11122;DHT22;5615;49.304;10.576;2024-03-08T07:42:00;1.70;99.90
11122;DHT22;5615;49.304;10.576;2024-03-08T07:44:27;1.80;99.90
11122;DHT22;5615;49.304;10.576;2024-03-08T07:46:56;2.00;99.90
11122;DHT22;5615;49.304;10.576;2024-03-08T07:49:23;2.00;99.90
11122;DHT22;5615;49.304;10.576;2024-03-08T07:51:50;2.10;99.90
11122;DHT22;5615;49.304;10.576;2024-03-08T07:54:17;2.10;99.90
11122;DHT22;5615;49.304;10.576;2024-03-08T07:56:44;2.30;99.90
11122;DHT22;5615;49.304;10.576;2024-03-08T07:59:11;2.50;99.90
11122;DHT22;5615;49.304;10.576;2024-03-08T08:01:38;2.60;99.90
11122;DHT22;5615;49.304;10.576;2024-03-08T08:04:06;2.70;99.90
11122;DHT22;5615;49.304;10.576;2024-03-08T08:06:37;2.70;99.90
11122;DHT22;5615;49.304;10.576;2024-03-08T08:09:06;2.80;99.90
11122;DHT22;5615;49.304;10.576;2024-03-08T08:11:35;3.00;99.90
11122;DHT22;5615;49.304;10.576;2024-03-08T08:14:02;3.10;99.90
11122;DHT22;5615;49.304;10.576;2024-03-08T08:16:29;3.20;99.90
11122;DHT22;5615;49.304;10.576;2024-03-08T08:18:56;3.40;99.90
11122;DHT22;5615;49.304;10.576;2024-03-08T08:21:24;3.60;99.90
11122;DHT22;5615;49.304;10.576;2024-03-08T08:23:51;3.70;99.90
11122;DHT22;5615;49.304;10.576;2024-03-08T08:26:18;3.80;99.90
11122;DHT22;5615;49.304;10.576;2024-03-08T08:28:46;3.80;99.90
11122;DHT22;5615;49.304;10.576;2024-03-08T08:31:13;4.10;99.90
11122;DHT22;5615;49.304;10.576;2024-03-08T08:33:40;4.40;99.90
11122;DHT22;5615;49.304;10.576;2024-03-08T08:36:07;4.50;99.90
11122;DHT22;5615;49.304;10.576;2024-03-08T08:38:36;4.50;99.90
11122;DHT22;5615;49.304;10.576;2024-03-08T08:41:10;4.70;99.90
11122;DHT22;5615;49.304;10.576;2024-03-08T08:43:38;4.90;99.90
11122;DHT22;5615;49.304;10.576;2024-03-08T08:46:13;5.00;99.90
11122;DHT22;5615;49.304;10.576;2024-03-08T08:48:43;5.10;99.90
11122;DHT22;5615;49.304;10.576;2024-03-08T08:51:10;4.90;99.90
11122;DHT22;5615;49.304;10.576;2024-03-08T08:53:40;4.90;99.90
11122;DHT22;5615;49.304;10.576;2024-03-08T08:56:08;4.90;99.90
11122;DHT22;5615;49.304;10.576;2024-03-08T08:58:39;5.10;99.90
11122;DHT22;5615;49.304;10.576;2024-03-08T09:01:08;5.20;99.90
11122;DHT22;5615;49.304;10.576;2024-03-08T09:03:35;5.10;99.90
11122;DHT22;5615;49.304;10.576;2024-03-08T09:06:05;5.50;99.90
11122;DHT22;5615;49.304;10.576;2024-03-08T09:08:35;5.50;99.90
11122;DHT22;5615;49.304;10.576;2024-03-08T09:11:03;5.50;99.90
11122;DHT22;5615;49.304;10.576;2024-03-08T09:13:30;5.60;99.90
11122;DHT22;5615;49.304;10.576;2024-03-08T09:15:58;5.50;99.90
11122;DHT22;5615;49.304;10.576;2024-03-08T09:18:26;5.50;99.90
11122;DHT22;5615;49.304;10.576;2024-03-08T09:20:53;5.60;99.90
11122;DHT22;5615;49.304;10.576;2024-03-08T09:23:20;5.80;99.90
11122;DHT22;5615;49.304;10.576;2024-03-08T09:25:47;5.80;99.90
11122;DHT22;5615;49.304;10.576;2024-03-08T09:28:15;6.30;99.90
11122;DHT22;5615;49.304;10.576;2024-03-08T09:30:42;6.60;99.90
11122;DHT22;5615;49.304;10.576;2024-03-08T09:33:10;6.80;99.90
11122;DHT22;5615;49.304;10.576;2024-03-08T09:35:37;7.10;99.90
11122;DHT22;5615;49.304;10.576;2024-03-08T09:38:04;7.30;99.90
11122;DHT22;5615;49.304;10.576;2024-03-08T09:40:30;7.70;99.90
11122;DHT22;5615;49.304;10.576;2024-03-08T09:42:57;7.80;99.90
11122;DHT22;5615;49.304;10.576;2024-03-08T09:45:25;7.90;99.90
11122;DHT22;5615;49.304;10.576;2024-03-08T09:47:54;7.90;99.90
11122;DHT22;5615;49.304;10.576;2024-03-08T09:50:21;7.70;99.90
11122;DHT22;5615;49.304;10.576;2024-03-08T09:52:49;8.00;99.90
11122;DHT22;5615;49.304;10.576;2024-03-08T09:55:16;8.50;99.90
11122;DHT22;5615;49.304;10.576;2024-03-08T09:57:48;8.30;99.90
11122;DHT22;5615;49.304;10.576;2024-03-08T10:00:33;8.50;99.90
11122;DHT22;5615;49.304;10.576;2024-03-08T10:03:01;8.90;99.90
11122;DHT22;5615;49.304;10.576;2024-03-08T10:05:28;9.00;99.90
11122;DHT22;5615;49.304;10.576;2024-03-08T10:07:55;9.20;99.90
11122;DHT22;5615;49.304;10.576;2024-03-08T10:10:21;9.30;99.90
11122;DHT22;5615;49.304;10.576;2024-03-08T10:12:48;9.20;99.90
11122;DHT22;5615;49.304;10.576;2024-03-08T10:15:16;9.50;99.90
11122;DHT22;5615;49.304;10.576;2024-03-08T10:17:44;9.90;99.90
11122;DHT22;5615;49.304;10.576;2024-03-08T10:20:14;10.00;99.90
11122;DHT22;5615;49.304;10.576;2024-03-08T10:22:41;10.10;99.90
11122;DHT22;5615;49.304;10.576;2024-03-08T10:25:10;10.10;99.90
11122;DHT22;5615;49.304;10.576;2024-03-08T10:27:38;10.40;99.90
11122;DHT22;5615;49.304;10.576;2024-03-08T10:30:07;10.50;99.90
11122;DHT22;5615;49.304;10.576;2024-03-08T10:32:37;11.00;99.60
11122;DHT22;5615;49.304;10.576;2024-03-08T10:35:06;11.30;98.70
11122;DHT22;5615;49.304;10.576;2024-03-08T10:37:41;11.60;97.70
11122;DHT22;5615;49.304;10.576;2024-03-08T10:40:10;11.60;96.10
11122;DHT22;5615;49.304;10.576;2024-03-08T10:42:47;11.90;95.80
11122;DHT22;5615;49.304;10.576;2024-03-08T10:45:23;12.50;94.60
11122;DHT22;5615;49.304;10.576;2024-03-08T10:48:10;13.10;92.60
11122;DHT22;5615;49.304;10.576;2024-03-08T10:50:43;13.60;91.60
11122;DHT22;5615;49.304;10.576;2024-03-08T10:53:13;14.00;89.40
11122;DHT22;5615;49.304;10.576;2024-03-08T10:55:40;14.10;86.60
11122;DHT22;5615;49.304;10.576;2024-03-08T10:58:09;14.40;85.60
11122;DHT22;5615;49.304;10.576;2024-03-08T11:00:36;14.90;84.10
11122;DHT22;5615;49.304;10.576;2024-03-08T11:03:03;15.20;81.70
11122;DHT22;5615;49.304;10.576;2024-03-08T11:05:37;15.00;76.70
11122;DHT22;5615;49.304;10.576;2024-03-08T11:08:16;15.50;75.30
11122;DHT22;5615;49.304;10.576;2024-03-08T11:10:48;15.60;72.00
11122;DHT22;5615;49.304;10.576;2024-03-08T11:13:36;15.70;70.90
11122;DHT22;5615;49.304;10.576;2024-03-08T11:16:07;16.10;69.60
11122;DHT22;5615;49.304;10.576;2024-03-08T11:18:35;16.60;68.40
11122;DHT22;5615;49.304;10.576;2024-03-08T11:21:03;16.50;64.60
11122;DHT22;5615;49.304;10.576;2024-03-08T11:23:33;17.00;60.70
11122;DHT22;5615;49.304;10.576;2024-03-08T11:26:01;17.00;58.80
11122;DHT22;5615;49.304;10.576;2024-03-08T11:28:31;17.50;57.50
11122;DHT22;5615;49.304;10.576;2024-03-08T11:31:24;17.70;56.60
11122;DHT22;5615;49.304;10.576;2024-03-08T11:33:52;17.40;54.90
11122;DHT22;5615;49.304;10.576;2024-03-08T11:36:21;17.60;54.40
11122;DHT22;5615;49.304;10.576;2024-03-08T11:38:50;18.30;54.00
11122;DHT22;5615;49.304;10.576;2024-03-08T11:41:19;18.50;51.90
11122;DHT22;5615;49.304;10.576;2024-03-08T11:43:46;18.80;51.40
11122;DHT22;5615;49.304;10.576;2024-03-08T11:46:14;19.10;48.50
11122;DHT22;5615;49.304;10.576;2024-03-08T11:48:41;19.00;47.60
11122;DHT22;5615;49.304;10.576;2024-03-08T11:51:08;19.10;45.00
11122;DHT22;5615;49.304;10.576;2024-03-08T11:53:37;19.10;45.00
11122;DHT22;5615;49.304;10.576;2024-03-08T11:56:09;19.20;43.80
11122;DHT22;5615;49.304;10.576;2024-03-08T11:58:36;19.90;44.20
11122;DHT22;5615;49.304;10.576;2024-03-08T12:01:04;19.80;41.70
11122;DHT22;5615;49.304;10.576;2024-03-08T12:03:32;19.70;40.70
11122;DHT22;5615;49.304;10.576;2024-03-08T12:06:00;20.20;40.80
11122;DHT22;5615;49.304;10.576;2024-03-08T12:08:27;20.20;39.20
11122;DHT22;5615;49.304;10.576;2024-03-08T12:10:54;20.90;38.40
11122;DHT22;5615;49.304;10.576;2024-03-08T12:13:26;21.00;36.60
11122;DHT22;5615;49.304;10.576;2024-03-08T12:15:55;21.20;35.60
11122;DHT22;5615;49.304;10.576;2024-03-08T12:18:22;21.80;35.60
11122;DHT22;5615;49.304;10.576;2024-03-08T12:20:49;21.80;34.70
11122;DHT22;5615;49.304;10.576;2024-03-08T12:23:16;22.20;34.00
11122;DHT22;5615;49.304;10.576;2024-03-08T12:25:43;22.50;33.80
11122;DHT22;5615;49.304;10.576;2024-03-08T12:28:10;23.10;33.80
11122;DHT22;5615;49.304;10.576;2024-03-08T12:30:46;23.30;31.00
11122;DHT22;5615;49.304;10.576;2024-03-08T12:33:14;24.00;30.60
11122;DHT22;5615;49.304;10.576;2024-03-08T12:35:50;24.30;29.50
11122;DHT22;5615;49.304;10.576;2024-03-08T12:38:19;23.70;29.00
11122;DHT22;5615;49.304;10.576;2024-03-08T12:40:50;23.60;29.00
11122;DHT22;5615;49.304;10.576;2024-03-08T12:43:17;23.90;28.90
11122;DHT22;5615;49.304;10.576;2024-03-08T12:45:46;24.30;28.10
11122;DHT22;5615;49.304;10.576;2024-03-08T12:48:13;23.00;26.90
11122;DHT22;5615;49.304;10.576;2024-03-08T12:50:40;23.80;27.40
11122;DHT22;5615;49.304;10.576;2024-03-08T12:53:09;23.40;27.00
11122;DHT22;5615;49.304;10.576;2024-03-08T12:55:35;23.40;27.00
11122;DHT22;5615;49.304;10.576;2024-03-08T12:58:04;23.90;26.30
11122;DHT22;5615;49.304;10.576;2024-03-08T13:00:32;23.80;26.30
11122;DHT22;5615;49.304;10.576;2024-03-08T13:03:03;23.20;26.10
11122;DHT22;5615;49.304;10.576;2024-03-08T13:05:31;23.40;26.70
11122;DHT22;5615;49.304;10.576;2024-03-08T13:07:58;24.40;26.40
11122;DHT22;5615;49.304;10.576;2024-03-08T13:10:25;24.20;26.20
11122;DHT22;5615;49.304;10.576;2024-03-08T13:12:52;24.90;25.50
11122;DHT22;5615;49.304;10.576;2024-03-08T13:15:20;24.40;24.90
11122;DHT22;5615;49.304;10.576;2024-03-08T13:17:47;24.30;24.90
11122;DHT22;5615;49.304;10.576;2024-03-08T13:20:15;25.60;24.40
11122;DHT22;5615;49.304;10.576;2024-03-08T13:22:45;25.70;23.70
11122;DHT22;5615;49.304;10.576;2024-03-08T13:25:12;25.70;24.40
11122;DHT22;5615;49.304;10.576;2024-03-08T13:27:39;25.10;23.70
11122;DHT22;5615;49.304;10.576;2024-03-08T13:30:07;25.60;23.60
11122;DHT22;5615;49.304;10.576;2024-03-08T13:32:39;25.70;22.30
11122;DHT22;5615;49.304;10.576;2024-03-08T13:35:06;24.00;21.20
11122;DHT22;5615;49.304;10.576;2024-03-08T13:37:39;24.80;22.00
11122;DHT22;5615;49.304;10.576;2024-03-08T13:40:07;24.30;21.30
11122;DHT22;5615;49.304;10.576;2024-03-08T13:42:36;24.60;22.10
11122;DHT22;5615;49.304;10.576;2024-03-08T13:45:04;25.10;21.50
11122;DHT22;5615;49.304;10.576;2024-03-08T13:47:32;25.50;20.90
11122;DHT22;5615;49.304;10.576;2024-03-08T13:49:59;26.00;20.50
11122;DHT22;5615;49.304;10.576;2024-03-08T13:52:26;25.90;20.20
11122;DHT22;5615;49.304;10.576;2024-03-08T13:54:56;26.30;19.90
11122;DHT22;5615;49.304;10.576;2024-03-08T13:57:23;27.30;18.90
11122;DHT22;5615;49.304;10.576;2024-03-08T13:59:49;26.70;18.10
11122;DHT22;5615;49.304;10.576;2024-03-08T14:02:16;28.00;18.60
11122;DHT22;5615;49.304;10.576;2024-03-08T14:04:43;28.20;18.00
11122;DHT22;5615;49.304;10.576;2024-03-08T14:07:10;28.20;17.40
11122;DHT22;5615;49.304;10.576;2024-03-08T14:09:37;28.30;16.80
11122;DHT22;5615;49.304;10.576;2024-03-08T14:12:09;28.20;16.10
11122;DHT22;5615;49.304;10.576;2024-03-08T14:14:36;27.90;16.50
11122;DHT22;5615;49.304;10.576;2024-03-08T14:17:03;27.10;15.50
11122;DHT22;5615;49.304;10.576;2024-03-08T14:19:29;27.70;15.50
11122;DHT22;5615;49.304;10.576;2024-03-08T14:21:56;28.10;15.30
11122;DHT22;5615;49.304;10.576;2024-03-08T14:24:24;28.00;15.10
11122;DHT22;5615;49.304;10.576;2024-03-08T14:26:51;29.00;15.00
11122;DHT22;5615;49.304;10.576;2024-03-08T14:29:19;29.00;14.10
11122;DHT22;5615;49.304;10.576;2024-03-08T14:31:46;28.90;14.30
11122;DHT22;5615;49.304;10.576;2024-03-08T14:34:13;29.30;14.30
11122;DHT22;5615;49.304;10.576;2024-03-08T14:36:40;29.20;13.90
11122;DHT22;5615;49.304;10.576;2024-03-08T14:39:07;28.70;13.80
11122;DHT22;5615;49.304;10.576;2024-03-08T14:41:33;28.90;14.10
11122;DHT22;5615;49.304;10.576;2024-03-08T14:44:03;28.20;13.90
11122;DHT22;5615;49.304;10.576;2024-03-08T14:46:31;28.20;13.80
11122;DHT22;5615;49.304;10.576;2024-03-08T14:48:57;27.70;13.80
11122;DHT22;5615;49.304;10.576;2024-03-08T14:51:24;27.60;14.10
11122;DHT22;5615;49.304;10.576;2024-03-08T14:53:53;27.80;14.40
11122;DHT22;5615;49.304;10.576;2024-03-08T14:56:20;27.80;14.10
11122;DHT22;5615;49.304;10.576;2024-03-08T14:58:48;28.20;13.50
11122;DHT22;5615;49.304;10.576;2024-03-08T15:01:16;28.00;13.70
11122;DHT22;5615;49.304;10.576;2024-03-08T15:03:48;28.80;13.20
11122;DHT22;5615;49.304;10.576;2024-03-08T15:06:15;28.10;12.60
11122;DHT22;5615;49.304;10.576;2024-03-08T15:08:46;28.50;12.90
11122;DHT22;5615;49.304;10.576;2024-03-08T15:11:13;27.80;13.00
11122;DHT22;5615;49.304;10.576;2024-03-08T15:13:46;26.20;13.90
11122;DHT22;5615;49.304;10.576;2024-03-08T15:16:17;26.90;14.20
11122;DHT22;5615;49.304;10.576;2024-03-08T15:18:44;26.90;13.90
11122;DHT22;5615;49.304;10.576;2024-03-08T15:21:14;27.10;13.70
11122;DHT22;5615;49.304;10.576;2024-03-08T15:23:44;27.60;13.50
11122;DHT22;5615;49.304;10.576;2024-03-08T15:26:15;27.80;13.40
11122;DHT22;5615;49.304;10.576;2024-03-08T15:28:42;27.00;13.60
11122;DHT22;5615;49.304;10.576;2024-03-08T15:31:10;26.70;13.70
11122;DHT22;5615;49.304;10.576;2024-03-08T15:33:39;26.00;14.50
11122;DHT22;5615;49.304;10.576;2024-03-08T15:36:08;24.40;14.80
11122;DHT22;5615;49.304;10.576;2024-03-08T15:38:38;23.80;15.40
11122;DHT22;5615;49.304;10.576;2024-03-08T15:41:05;24.20;15.70